createdAt,value
2023-01-30T00:02:13.385Z,97414.84
2023-01-30T00:05:17.969Z,97417.88
2023-01-30T00:08:22.689Z,97415.13
2023-01-30T00:11:29.926Z,97403.16
2023-01-30T00:14:34.450Z,97400.16
2023-01-30T00:17:38.927Z,97388.22
2023-01-30T00:20:43.467Z,97395.94
2023-01-30T00:23:47.980Z,97379.47
2023-01-30T00:26:52.539Z,97376.16
2023-01-30T00:30:02.743Z,97380.72
2023-01-30T00:33:09.680Z,97367.34
2023-01-30T00:36:14.140Z,97340.25
2023-01-30T00:39:18.665Z,97344.59
2023-01-30T00:42:41.575Z,97351.56
2023-01-30T00:46:05.749Z,97343.69
2023-01-30T00:49:10.905Z,97356.25
2023-01-30T00:52:15.417Z,97348.06
2023-01-30T00:55:20.128Z,97343.56
2023-01-30T00:58:24.983Z,97325.88
2023-01-30T01:01:29.541Z,97315.13
2023-01-30T01:04:43.070Z,97327.81
2023-01-30T01:07:49.858Z,97314.69
2023-01-30T01:10:54.428Z,97309.13
2023-01-30T01:14:00.478Z,97314.19
2023-01-30T01:17:05.794Z,97317.47
2023-01-30T01:20:10.566Z,97307.81
2023-01-30T01:23:15.151Z,97303.03
2023-01-30T01:26:20.280Z,97295.88
2023-01-30T01:29:24.921Z,97301.28
2023-01-30T01:32:29.688Z,97302.41
2023-01-30T01:35:40.825Z,97257.09
2023-01-30T01:38:45.423Z,97297.59
2023-01-30T01:41:49.952Z,97301.50
2023-01-30T01:45:03.627Z,97294.53
2023-01-30T01:48:14.604Z,97286.63
2023-01-30T01:51:20.970Z,97283.72
2023-01-30T01:54:34.754Z,97270.63
2023-01-30T01:57:40.853Z,97279.47
2023-01-30T02:00:47.015Z,97270.97
2023-01-30T02:03:56.688Z,97272.69
2023-01-30T02:07:01.283Z,97265.22
2023-01-30T02:10:09.874Z,97275.53
2023-01-30T02:13:15.242Z,97226.13
2023-01-30T02:16:20.271Z,97285.34
2023-01-30T02:19:46.370Z,97287.13
2023-01-30T02:23:17.673Z,97280.69
2023-01-30T02:26:28.591Z,97282.22
2023-01-30T02:29:54.151Z,97263.94
2023-01-30T02:33:14.945Z,97248.22
2023-01-30T02:36:34.482Z,97254.34
2023-01-30T02:39:48.804Z,97246.38
2023-01-30T02:43:12.307Z,97239.00
2023-01-30T02:46:26.681Z,97253.06
2023-01-30T02:49:32.819Z,97250.06
2023-01-30T02:52:37.747Z,97253.56
2023-01-30T02:55:42.921Z,97240.69
2023-01-30T02:59:06.908Z,97242.13
2023-01-30T03:02:31.072Z,97246.91
2023-01-30T03:05:57.713Z,97244.97
2023-01-30T03:09:05.371Z,97242.53
2023-01-30T03:12:49.084Z,97248.94
2023-01-30T03:15:59.976Z,97237.53
2023-01-30T03:19:07.045Z,97231.75
2023-01-30T03:22:11.595Z,97228.03
2023-01-30T03:25:21.742Z,97216.97
2023-01-30T03:28:27.025Z,97221.09
2023-01-30T03:31:31.793Z,97224.69
2023-01-30T03:34:37.455Z,97222.00
2023-01-30T03:37:42.385Z,97219.81
2023-01-30T03:40:47.257Z,97204.91
2023-01-30T03:43:51.791Z,97207.34
2023-01-30T03:46:56.391Z,97210.75
2023-01-30T03:50:01.216Z,97195.06
2023-01-30T03:53:06.103Z,97195.03
2023-01-30T03:56:10.683Z,97205.31
2023-01-30T03:59:15.201Z,97199.84
2023-01-30T04:02:27.009Z,97204.84
2023-01-30T04:05:32.613Z,97194.13
2023-01-30T04:08:41.791Z,97185.22
2023-01-30T04:11:51.300Z,97192.16
2023-01-30T04:14:56.764Z,97173.75
2023-01-30T04:18:20.869Z,97171.09
2023-01-30T04:21:36.114Z,97122.59
2023-01-30T04:24:40.680Z,97160.25
2023-01-30T04:27:45.436Z,97171.38
2023-01-30T04:30:56.695Z,97179.53
2023-01-30T04:34:19.778Z,97176.75
2023-01-30T04:37:24.419Z,97171.56
2023-01-30T04:40:29.058Z,97161.59
2023-01-30T04:43:34.550Z,97190.31
2023-01-30T04:46:51.130Z,97201.06
2023-01-30T04:49:55.682Z,97188.84
2023-01-30T04:53:00.253Z,97186.88
2023-01-30T04:56:05.213Z,97188.53
2023-01-30T04:59:09.837Z,97177.97
2023-01-30T05:02:19.600Z,97159.75
2023-01-30T05:05:25.954Z,97171.47
2023-01-30T05:08:30.890Z,97143.59
2023-01-30T05:11:35.629Z,97137.22
2023-01-30T05:14:41.330Z,97159.25
2023-01-30T05:17:46.292Z,97130.69
2023-01-30T05:20:50.909Z,97123.59
2023-01-30T05:23:56.883Z,97081.06
2023-01-30T05:27:01.417Z,97105.03
2023-01-30T05:30:06.509Z,97094.03
2023-01-30T05:33:11.089Z,97088.97
2023-01-30T05:36:18.057Z,97092.09
2023-01-30T05:39:22.743Z,97102.34
2023-01-30T05:42:29.010Z,97069.44
2023-01-30T05:45:33.594Z,97099.19
2023-01-30T05:48:38.332Z,97097.03
2023-01-30T05:51:42.982Z,97105.59
2023-01-30T05:54:47.517Z,97101.69
2023-01-30T05:57:52.059Z,97112.69
2023-01-30T06:01:09.693Z,97077.47
2023-01-30T06:04:14.185Z,97094.19
2023-01-30T06:07:18.714Z,97113.59
2023-01-30T06:10:23.180Z,97121.53
2023-01-30T06:13:27.767Z,97117.69
2023-01-30T06:16:32.433Z,97112.78
2023-01-30T06:19:39.006Z,97057.69
2023-01-30T06:22:43.513Z,97116.97
2023-01-30T06:25:49.381Z,97115.06
2023-01-30T06:28:53.923Z,97104.00
2023-01-30T06:31:58.388Z,97101.66
2023-01-30T06:35:03.078Z,97103.88
2023-01-30T06:38:11.288Z,97089.81
2023-01-30T06:41:15.832Z,97087.13
2023-01-30T06:44:20.428Z,97091.59
2023-01-30T06:47:25.039Z,97094.72
2023-01-30T06:50:30.920Z,97095.25
2023-01-30T06:53:35.410Z,97081.78
2023-01-30T06:56:39.938Z,97075.69
2023-01-30T06:59:44.436Z,97095.97
2023-01-30T07:02:49.006Z,97096.03
2023-01-30T07:05:54.134Z,97096.13
2023-01-30T07:08:58.647Z,97090.34
2023-01-30T07:12:03.215Z,97090.69
2023-01-30T07:15:08.247Z,97094.91
2023-01-30T07:18:13.237Z,97098.34
2023-01-30T07:21:17.785Z,97081.47
2023-01-30T07:24:22.324Z,97065.31
2023-01-30T07:27:26.855Z,97093.25
2023-01-30T07:30:33.426Z,97086.16
2023-01-30T07:33:38.028Z,97084.44
2023-01-30T07:36:42.572Z,97089.94
2023-01-30T07:39:47.027Z,97086.56
2023-01-30T07:43:00.573Z,97092.38
2023-01-30T07:46:05.265Z,97079.44
2023-01-30T07:49:10.549Z,97064.25
2023-01-30T07:52:15.042Z,97058.22
2023-01-30T07:55:19.950Z,97057.97
2023-01-30T07:58:24.592Z,97047.78
2023-01-30T08:01:29.446Z,97053.78
2023-01-30T08:04:33.999Z,97068.56
2023-01-30T08:07:38.559Z,97063.34
2023-01-30T08:10:43.304Z,97061.03
2023-01-30T08:13:47.905Z,97051.53
2023-01-30T08:16:52.568Z,97050.66
2023-01-30T08:19:57.112Z,97048.56
2023-01-30T08:23:02.357Z,97045.94
2023-01-30T08:26:06.836Z,97032.25
2023-01-30T08:29:11.380Z,97024.91
2023-01-30T08:32:16.035Z,97013.97
2023-01-30T08:35:20.641Z,96994.84
2023-01-30T08:38:25.215Z,97018.00
2023-01-30T08:41:31.025Z,96984.41
2023-01-30T08:44:35.521Z,97018.94
2023-01-30T08:47:40.092Z,97003.66
2023-01-30T08:50:44.605Z,97001.19
2023-01-30T08:53:49.201Z,97009.00
2023-01-30T08:56:53.700Z,96998.84
2023-01-30T09:00:00.065Z,96973.88
2023-01-30T09:03:04.564Z,97006.59
2023-01-30T09:06:09.546Z,97003.56
2023-01-30T09:09:14.108Z,96998.25
2023-01-30T09:12:18.584Z,97001.94
2023-01-30T09:15:23.101Z,97000.06
2023-01-30T09:18:27.662Z,96987.09
2023-01-30T09:21:32.121Z,96964.94
2023-01-30T09:24:36.733Z,96982.44
2023-01-30T09:27:44.393Z,96994.88
2023-01-30T09:30:49.379Z,96939.78
2023-01-30T09:33:54.045Z,96974.75
2023-01-30T09:37:00.249Z,96979.22
2023-01-30T09:40:06.045Z,96981.88
2023-01-30T09:43:28.506Z,96982.66
2023-01-30T09:47:11.840Z,96977.63
2023-01-30T09:50:49.841Z,96967.22
2023-01-30T09:54:17.905Z,96956.75
2023-01-30T09:57:26.066Z,96962.00
2023-01-30T10:00:42.223Z,96966.31
2023-01-30T10:04:01.424Z,96952.16
2023-01-30T10:07:20.432Z,96944.50
2023-01-30T10:10:39.837Z,96939.69
2023-01-30T10:13:59.641Z,96938.19
2023-01-30T10:17:07.031Z,96930.41
2023-01-30T10:20:44.499Z,96911.66
2023-01-30T10:24:26.495Z,96914.00
2023-01-30T10:27:32.832Z,96894.78
2023-01-30T10:30:38.202Z,96884.66
2023-01-30T10:34:03.578Z,96877.97
2023-01-30T10:37:13.662Z,96856.88
2023-01-30T10:40:40.509Z,96854.31
2023-01-30T10:43:53.284Z,96838.06
2023-01-30T10:47:50.375Z,96834.69
2023-01-30T10:50:58.229Z,96822.75
2023-01-30T10:54:03.881Z,96807.34
2023-01-30T10:57:11.339Z,96805.69
2023-01-30T11:00:37.759Z,96802.25
2023-01-30T11:03:47.990Z,96800.59
2023-01-30T11:06:54.344Z,96803.06
2023-01-30T11:10:00.344Z,96794.59
2023-01-30T11:13:05.817Z,96762.19
2023-01-30T11:16:11.266Z,96796.31
2023-01-30T11:19:20.766Z,96795.47
2023-01-30T11:22:27.009Z,96789.47
2023-01-30T11:25:32.220Z,96784.38
2023-01-30T11:28:43.211Z,96771.53
2023-01-30T11:31:51.015Z,96766.44
2023-01-30T11:35:19.602Z,96772.41
2023-01-30T11:38:25.690Z,96758.78
2023-01-30T11:41:30.966Z,96763.81
2023-01-30T11:44:37.980Z,96776.50
2023-01-30T11:47:58.884Z,96769.63
2023-01-30T11:51:06.565Z,96765.41
2023-01-30T11:54:18.656Z,96744.06
2023-01-30T11:57:23.163Z,96760.31
2023-01-30T12:00:50.912Z,96748.47
2023-01-30T12:03:57.250Z,96738.94
2023-01-30T12:07:09.112Z,96721.19
2023-01-30T12:10:14.808Z,96717.75
2023-01-30T12:13:38.756Z,96716.06
2023-01-30T12:16:56.039Z,96716.16
2023-01-30T12:20:28.329Z,96710.97
2023-01-30T12:24:00.367Z,96705.88
2023-01-30T12:27:09.809Z,96710.97
2023-01-30T12:30:34.852Z,96705.91
2023-01-30T12:33:41.098Z,96657.28
2023-01-30T12:36:56.603Z,96704.97
2023-01-30T12:40:18.699Z,96694.81
2023-01-30T12:43:48.971Z,96691.34
2023-01-30T12:47:07.107Z,96694.78
2023-01-30T12:50:23.126Z,96690.53
2023-01-30T12:53:50.273Z,96694.66
2023-01-30T12:57:17.461Z,96690.53
2023-01-30T13:00:49.504Z,96676.88
2023-01-30T13:04:24.490Z,96675.97
2023-01-30T13:07:29.847Z,96691.22
2023-01-30T13:10:48.191Z,96675.16
2023-01-30T13:14:01.497Z,96679.38
2023-01-30T13:17:25.172Z,96680.22
2023-01-30T13:20:44.806Z,96683.63
2023-01-30T13:24:04.486Z,96680.16
2023-01-30T13:27:17.005Z,96688.69
2023-01-30T13:30:25.220Z,96686.22
2023-01-30T13:33:33.940Z,96685.19
2023-01-30T13:37:15.198Z,96686.16
2023-01-30T13:40:23.812Z,96701.19
2023-01-30T13:43:34.538Z,96691.16
2023-01-30T13:46:39.894Z,96699.66
2023-01-30T13:50:08.784Z,96696.41
2023-01-30T13:53:41.482Z,96708.25
2023-01-30T13:57:06.820Z,96722.72
2023-01-30T14:00:26.587Z,96720.09
2023-01-30T14:03:32.919Z,96688.50
2023-01-30T14:06:39.033Z,96711.66
2023-01-30T14:09:49.223Z,96713.38
2023-01-30T14:12:54.259Z,96712.56
2023-01-30T14:16:04.220Z,96716.00
2023-01-30T14:19:33.419Z,96724.38
2023-01-30T14:23:03.334Z,96710.88
2023-01-30T14:26:08.052Z,96718.50
2023-01-30T14:29:38.202Z,96724.44
2023-01-30T14:32:54.421Z,96726.78
2023-01-30T14:35:58.916Z,96740.59
2023-01-30T14:39:39.054Z,96738.00
2023-01-30T14:42:45.362Z,96732.72
2023-01-30T14:45:56.146Z,96736.88
2023-01-30T14:49:16.089Z,96726.66
2023-01-30T14:52:42.469Z,96739.50
2023-01-30T14:56:00.468Z,96751.53
2023-01-30T14:59:23.915Z,96746.34
2023-01-30T15:02:34.742Z,96691.66
2023-01-30T15:05:44.523Z,96739.41
2023-01-30T15:08:50.220Z,96749.84
2023-01-30T15:12:15.474Z,96750.44
2023-01-30T15:15:47.590Z,96764.97
2023-01-30T15:19:19.488Z,96772.75
2023-01-30T15:22:38.179Z,96771.13
2023-01-30T15:25:50.917Z,96774.53
2023-01-30T15:28:58.442Z,96779.69
2023-01-30T15:32:05.063Z,96790.75
2023-01-30T15:35:18.812Z,96793.25
2023-01-30T15:38:32.780Z,96794.16
2023-01-30T15:41:41.238Z,96800.25
2023-01-30T15:45:02.442Z,96801.91
2023-01-30T15:48:25.501Z,96823.16
2023-01-30T15:51:31.987Z,96842.75
2023-01-30T15:54:36.919Z,96838.59
2023-01-30T15:57:43.643Z,96835.16
2023-01-30T16:00:51.850Z,96835.13
2023-01-30T16:03:58.492Z,96850.41
2023-01-30T16:07:14.991Z,96852.09
2023-01-30T16:10:25.500Z,96853.00
2023-01-30T16:13:30.238Z,96857.22
2023-01-30T16:16:35.878Z,96843.59
2023-01-30T16:19:42.419Z,96852.09
2023-01-30T16:22:48.036Z,96870.91
2023-01-30T16:25:54.540Z,96842.72
2023-01-30T16:29:02.438Z,96873.47
2023-01-30T16:32:13.160Z,96861.59
2023-01-30T16:35:27.015Z,96885.50
2023-01-30T16:38:41.628Z,96890.47
2023-01-30T16:41:54.851Z,96881.91
2023-01-30T16:45:19.531Z,96885.41
2023-01-30T16:48:33.114Z,96896.44
2023-01-30T16:51:37.804Z,96901.47
2023-01-30T16:54:47.793Z,96890.44
2023-01-30T16:58:02.531Z,96895.56
2023-01-30T17:01:08.251Z,96902.34
2023-01-30T17:04:20.586Z,96904.78
2023-01-30T17:07:33.764Z,96906.69
2023-01-30T17:10:52.367Z,96910.06
2023-01-30T17:14:20.886Z,96910.09
2023-01-30T17:17:25.418Z,96907.63
2023-01-30T17:20:38.417Z,96910.09
2023-01-30T17:23:44.471Z,96910.84
2023-01-30T17:26:59.124Z,96916.03
2023-01-30T17:30:15.693Z,96914.31
2023-01-30T17:33:20.233Z,96921.97
2023-01-30T17:36:29.746Z,96916.84
2023-01-30T17:39:34.279Z,96921.16
2023-01-30T17:42:38.808Z,96916.78
2023-01-30T17:45:44.830Z,96916.06
2023-01-30T17:48:49.329Z,96914.28
2023-01-30T17:51:55.338Z,96919.44
2023-01-30T17:54:59.939Z,96927.97
2023-01-30T17:58:04.500Z,96925.50
2023-01-30T18:01:08.962Z,96938.09
2023-01-30T18:04:14.799Z,96927.97
2023-01-30T18:07:20.607Z,96950.97
2023-01-30T18:10:25.891Z,96956.91
2023-01-30T18:13:30.492Z,96946.72
2023-01-30T18:16:35.345Z,96952.81
2023-01-30T18:19:39.982Z,96915.22
2023-01-30T18:22:44.684Z,96952.84
2023-01-30T18:25:49.211Z,96954.47
2023-01-30T18:28:54.285Z,96933.97
2023-01-30T18:32:05.618Z,96934.84
2023-01-30T18:35:10.310Z,96946.81
2023-01-30T18:38:14.878Z,96950.25
2023-01-30T18:41:24.095Z,96947.63
2023-01-30T18:44:28.741Z,96940.84
2023-01-30T18:47:34.755Z,96939.06
2023-01-30T18:50:39.350Z,96933.19
2023-01-30T18:53:44.254Z,96924.69
2023-01-30T18:56:48.811Z,96941.69
2023-01-30T18:59:54.835Z,96938.25
2023-01-30T19:02:59.438Z,96932.22
2023-01-30T19:06:04.347Z,96939.16
2023-01-30T19:09:13.364Z,96947.69
2023-01-30T19:12:36.112Z,96946.84
2023-01-30T19:15:40.705Z,96950.94
2023-01-30T19:18:45.262Z,96962.06
2023-01-30T19:21:52.121Z,96970.56
2023-01-30T19:24:56.873Z,96981.69
2023-01-30T19:28:01.360Z,96985.97
2023-01-30T19:31:07.424Z,96985.13
2023-01-30T19:34:15.284Z,96930.53
2023-01-30T19:37:19.784Z,96977.50
2023-01-30T19:40:24.308Z,97010.66
2023-01-30T19:43:28.843Z,96998.84
2023-01-30T19:46:33.563Z,96993.78
2023-01-30T19:49:38.061Z,97003.13
2023-01-30T19:52:42.745Z,97019.28
2023-01-30T19:55:50.937Z,97004.69
2023-01-30T19:58:57.242Z,97019.16
2023-01-30T20:02:01.791Z,96994.38
2023-01-30T20:05:06.568Z,96998.81
2023-01-30T20:08:22.031Z,97013.34
2023-01-30T20:11:35.852Z,97034.59
2023-01-30T20:14:40.314Z,97033.72
2023-01-30T20:17:44.859Z,97032.88
2023-01-30T20:20:49.391Z,97024.38
2023-01-30T20:23:54.376Z,97037.13
2023-01-30T20:26:58.861Z,97044.81
2023-01-30T20:30:03.626Z,97035.44
2023-01-30T20:33:09.838Z,97035.50
2023-01-30T20:36:18.701Z,97050.78
2023-01-30T20:39:23.303Z,97042.31
2023-01-30T20:42:28.138Z,97044.03
2023-01-30T20:45:32.653Z,97039.78
2023-01-30T20:48:38.688Z,97052.50
2023-01-30T20:51:44.831Z,97017.47
2023-01-30T20:54:49.376Z,97046.69
2023-01-30T20:57:54.229Z,97053.47
2023-01-30T21:01:28.179Z,97072.97
2023-01-30T21:04:33.054Z,97043.16
2023-01-30T21:07:37.941Z,97063.59
2023-01-30T21:10:47.131Z,97068.72
2023-01-30T21:13:51.662Z,97086.59
2023-01-30T21:16:56.235Z,97092.47
2023-01-30T21:20:00.802Z,97078.94
2023-01-30T21:23:05.459Z,97067.84
2023-01-30T21:26:12.689Z,97078.22
2023-01-30T21:29:20.719Z,97075.63
2023-01-30T21:32:25.240Z,97076.47
2023-01-30T21:35:30.379Z,97086.72
2023-01-30T21:38:53.881Z,97099.44
2023-01-30T21:42:16.621Z,97106.22
2023-01-30T21:45:21.782Z,97102.91
2023-01-30T21:48:26.661Z,97110.59
2023-01-30T21:51:32.006Z,97100.38
2023-01-30T21:54:36.586Z,97107.25
2023-01-30T21:57:41.063Z,97115.72
2023-01-30T22:00:46.116Z,97133.56
2023-01-30T22:03:50.750Z,97120.81
2023-01-30T22:06:55.643Z,97135.47
2023-01-30T22:10:02.126Z,97149.88
2023-01-30T22:13:06.598Z,97149.91
2023-01-30T22:16:13.817Z,97135.41
2023-01-30T22:19:18.407Z,97161.81
2023-01-30T22:22:24.428Z,97108.16
2023-01-30T22:25:28.990Z,97147.44
2023-01-30T22:28:35.226Z,97159.25
2023-01-30T22:31:41.213Z,97147.38
2023-01-30T22:34:45.830Z,97145.66
2023-01-30T22:37:50.662Z,97166.09
2023-01-30T22:41:11.020Z,97154.97
2023-01-30T22:44:16.758Z,97149.78
2023-01-30T22:47:21.365Z,97142.25
2023-01-30T22:50:26.051Z,97143.78
2023-01-30T22:53:32.544Z,97167.72
2023-01-30T22:56:42.369Z,97172.03
2023-01-30T22:59:46.890Z,97166.09
2023-01-30T23:02:51.424Z,97180.41
2023-01-30T23:05:57.943Z,97188.81
2023-01-30T23:09:04.119Z,97187.22
2023-01-30T23:12:27.337Z,97190.72
2023-01-30T23:15:33.183Z,97205.00
2023-01-30T23:18:56.454Z,97207.81
2023-01-30T23:22:02.809Z,97187.91
2023-01-30T23:25:08.947Z,97179.59
2023-01-30T23:28:13.480Z,97207.59
2023-01-30T23:31:21.445Z,97201.63
2023-01-30T23:34:25.986Z,97205.06
2023-01-30T23:37:52.057Z,97210.94
2023-01-30T23:41:12.272Z,97211.78
2023-01-30T23:44:16.832Z,97217.94
2023-01-30T23:47:21.410Z,97207.84
2023-01-30T23:50:29.016Z,97195.91
2023-01-30T23:53:34.220Z,97209.59
2023-01-30T23:56:40.970Z,97204.28
2023-01-30T23:59:45.513Z,97198.63
